Fordoche, LA

6:40 AM CST on December 20, 2014 (GMT -0600)
MesoWest FORDOC LA US UPR | Change Station
CLOSE
Current Station
Personal Weather Station
Location: Livonia, LA
Elevation: 35 ft
Nearby Weather Stations

Elev 35 ft 30.59 °N, 91.61 °W | Updated 1 hour ago

Overcast
Overcast
46.0 °F
Feels Like 46.0 °F
N
-
Wind Variable Wind from North

Today
High -- | Low -- °F
--% Chance of Precip.
Yesterday
High -- | Low -- °F
Precip. -- in
6:59 AM 5:09 PM
Waning Crescent, 3% visible
Pressure 30.15 in
Visibility 10.0 miles
Clouds Overcast 800 ft
Dew Point Not available.
Humidity Not available.
Rainfall -999.00 in
Snow Depth Not available.
UV 0 out of 12
Pollen 1.90 out of 12
Air Quality Not available.
Flu Activity Not available.
METAR KHZR 201215Z AUTO 36007KT 10SM OVC008 09/08 A3015 RMK AO2 T00850077

More Conditions Fewer Conditions

Pressure 30.15 in
Visibility 10.0 miles
Clouds Overcast 800 ft
Dew Point Not available.
Humidity Not available.
Rainfall -999.00 in
Snow Depth Not available.
UV 0 out of 12
Pollen 1.90 out of 12
Air Quality Not available.
Flu Activity Not available.
METAR KHZR 201215Z AUTO 36007KT 10SM OVC008 09/08 A3015 RMK AO2 T00850077

More Conditions Fewer Conditions

10-Day Weather Forecast

Almanac

Astronomy

Dec. 20, 2014 Rise Set
Actual Time
Civil Twilight
Nautical Twilight
Astronomical Twilight
Moon
Length of Visible Light
Length of Day
Tomorrow will be .
, % of the Moon is Illuminated

Today's Extremes

State Highs State Lows

Community

WunderPhotos

Upload Photos

1,779,163 photos uploaded!

WunderBlogs® & News

Nearby

Air Quality

  Air Quality AQ Index Pollutant
Not available.

Snow Depth

Station Depth Elevation

Earthquake Activity

City Distance Mag. Time & Date
Minimum magnitude displayed is 2.5.

Coastal Water Temperatures

Place Temperature

Nearby Weather Stations